createdAt,value
2023-04-25T00:01:12.981Z,5.8
2023-04-25T00:02:25.679Z,5.8
2023-04-25T00:03:38.140Z,5.8
2023-04-25T00:04:51.058Z,5.8
2023-04-25T00:06:04.014Z,5.9
2023-04-25T00:07:16.990Z,5.9
2023-04-25T00:08:29.975Z,5.9
2023-04-25T00:09:43.156Z,5.9
2023-04-25T00:10:56.024Z,6.1
2023-04-25T00:12:09.000Z,6.1
2023-04-25T00:13:21.955Z,6.1
2023-04-25T00:14:35.001Z,6.1
2023-04-25T00:15:48.011Z,6.1
2023-04-25T00:17:00.970Z,6.1
2023-04-25T00:18:13.666Z,6.2
2023-04-25T00:19:26.954Z,6.2
2023-04-25T00:20:39.994Z,6.2
2023-04-25T00:21:53.664Z,6.2
2023-04-25T00:23:05.975Z,6.2
2023-04-25T00:24:19.016Z,6.3
2023-04-25T00:25:32.030Z,6.3
2023-04-25T00:26:44.970Z,6.3
2023-04-25T00:27:57.996Z,6.3
2023-04-25T00:29:11.061Z,6.3
2023-04-25T00:30:23.870Z,6.3
2023-04-25T00:31:36.925Z,6.3
2023-04-25T00:32:50.092Z,6.4
2023-04-25T00:34:03.005Z,6.4
2023-04-25T00:35:15.993Z,6.4
2023-04-25T00:36:28.903Z,6.4
2023-04-25T00:37:42.175Z,6.4
2023-04-25T00:38:54.986Z,6.4
2023-04-25T00:40:08.080Z,6.4
2023-04-25T00:41:21.024Z,6.4
2023-04-25T00:42:34.088Z,6.5
2023-04-25T00:43:46.996Z,6.6
2023-04-25T00:45:00.153Z,6.6
2023-04-25T00:46:13.062Z,6.6
2023-04-25T00:47:26.129Z,6.6
2023-04-25T00:48:39.021Z,6.6
2023-04-25T00:49:51.994Z,6.6
2023-04-25T00:51:05.095Z,6.6
2023-04-25T00:52:18.007Z,6.6
2023-04-25T00:53:31.123Z,6.6
2023-04-25T00:54:44.035Z,6.6
2023-04-25T00:55:56.925Z,6.6
2023-04-25T00:58:23.052Z,6.8
2023-04-25T00:59:36.078Z,6.8
2023-04-25T01:00:49.047Z,6.8
2023-04-25T01:02:02.167Z,6.8
2023-04-25T01:03:15.190Z,6.8
2023-04-25T01:04:28.563Z,6.8
2023-04-25T01:05:40.829Z,6.8
2023-04-25T01:06:54.047Z,6.8
2023-04-25T01:08:06.718Z,6.7
2023-04-25T01:09:19.987Z,6.8
2023-04-25T01:10:32.830Z,6.8
2023-04-25T01:11:46.097Z,6.8
2023-04-25T01:15:25.026Z,6.8
2023-04-25T01:16:38.103Z,6.8
2023-04-25T01:17:51.074Z,6.8
2023-04-25T01:19:04.044Z,6.8
2023-04-25T01:20:17.063Z,6.8
2023-04-25T01:21:29.733Z,6.8
2023-04-25T01:22:43.073Z,6.8
2023-04-25T01:23:56.114Z,6.8
2023-04-25T01:25:08.933Z,6.8
2023-04-25T01:26:21.985Z,6.8
2023-04-25T01:27:35.164Z,6.8
2023-04-25T01:28:48.227Z,6.8
2023-04-25T01:30:00.769Z,6.8
2023-04-25T01:31:14.248Z,6.6
2023-04-25T01:32:27.079Z,6.6
2023-04-25T01:33:40.128Z,6.6
2023-04-25T01:34:53.041Z,6.6
2023-04-25T01:36:06.657Z,6.6
2023-04-25T01:37:19.057Z,6.6
2023-04-25T01:38:31.841Z,6.6
2023-04-25T01:39:44.903Z,6.6
2023-04-25T01:40:58.046Z,6.6
2023-04-25T01:42:11.047Z,6.6
2023-04-25T01:43:24.601Z,6.6
2023-04-25T01:44:37.221Z,6.6
2023-04-25T01:45:50.681Z,6.6
2023-04-25T01:47:03.036Z,6.6
2023-04-25T01:48:16.046Z,6.6
2023-04-25T01:49:29.046Z,6.6
2023-04-25T01:50:42.067Z,6.6
2023-04-25T01:51:54.699Z,6.6
2023-04-25T01:53:08.019Z,6.6
2023-04-25T01:54:21.055Z,6.6
2023-04-25T01:55:34.321Z,6.6
2023-04-25T01:56:47.068Z,6.6
2023-04-25T01:58:00.613Z,6.6
2023-04-25T01:59:13.068Z,6.6
2023-04-25T02:00:25.935Z,6.6
2023-04-25T02:01:39.275Z,6.6
2023-04-25T02:02:52.213Z,6.6
2023-04-25T02:04:05.289Z,6.6
2023-04-25T02:05:18.143Z,6.6
2023-04-25T02:06:30.942Z,6.6
2023-04-25T02:07:44.070Z,6.6
2023-04-25T02:08:57.064Z,6.6
2023-04-25T02:10:10.104Z,6.6
2023-04-25T02:11:22.934Z,6.6
2023-04-25T02:12:36.063Z,6.6
2023-04-25T02:13:49.063Z,6.6
2023-04-25T02:15:02.045Z,6.4
2023-04-25T02:16:15.106Z,6.4
2023-04-25T02:17:28.105Z,6.4
2023-04-25T02:18:41.046Z,6.4
2023-04-25T02:19:53.961Z,6.4
2023-04-25T02:21:07.082Z,6.4
2023-04-25T02:22:20.092Z,6.4
2023-04-25T02:23:32.751Z,6.4
2023-04-25T02:24:46.044Z,6.4
2023-04-25T02:25:58.754Z,6.3
2023-04-25T02:27:12.078Z,6.3
2023-04-25T02:28:25.055Z,6.3
2023-04-25T02:29:38.028Z,6.3
2023-04-25T02:30:51.707Z,6.3
2023-04-25T02:32:04.043Z,6.3
2023-04-25T02:33:17.058Z,6.3
2023-04-25T02:34:30.795Z,6.3
2023-04-25T02:35:43.142Z,6.3
2023-04-25T02:36:56.040Z,6.3
2023-04-25T02:38:09.176Z,6.3
2023-04-25T02:39:22.027Z,6.3
2023-04-25T02:40:35.076Z,6.3
2023-04-25T02:41:48.047Z,6.3
2023-04-25T02:43:01.069Z,6.2
2023-04-25T02:44:14.066Z,6.2
2023-04-25T02:45:27.230Z,6.2
2023-04-25T02:46:41.066Z,6.1
2023-04-25T02:47:52.792Z,6.1
2023-04-25T02:49:06.153Z,6.1
2023-04-25T02:51:32.207Z,6.1
2023-04-25T02:52:44.948Z,6.1
2023-04-25T02:53:58.064Z,6.1
2023-04-25T02:55:11.132Z,6.1
2023-04-25T02:56:24.075Z,6.1
2023-04-25T02:57:36.912Z,6.1
2023-04-25T03:00:02.904Z,6.1
2023-04-25T03:01:16.386Z,6.1
2023-04-25T03:02:29.041Z,5.9
2023-04-25T03:03:42.015Z,5.9
2023-04-25T03:04:55.094Z,5.9
2023-04-25T03:06:08.123Z,5.9
2023-04-25T03:07:21.085Z,5.9
2023-04-25T03:08:34.015Z,5.9
2023-04-25T03:09:47.083Z,5.9
2023-04-25T03:11:00.077Z,5.9
2023-04-25T03:12:13.257Z,5.9
2023-04-25T03:13:26.057Z,5.9
2023-04-25T03:14:39.016Z,5.9
2023-04-25T03:15:52.039Z,5.9
2023-04-25T03:17:05.094Z,5.9
2023-04-25T03:18:18.145Z,5.9
2023-04-25T03:19:31.074Z,5.9
2023-04-25T03:20:44.220Z,5.8
2023-04-25T03:21:57.105Z,5.8
2023-04-25T03:23:09.977Z,5.8
2023-04-25T03:24:22.962Z,5.8
2023-04-25T03:25:36.172Z,5.8
2023-04-25T03:26:49.088Z,5.8
2023-04-25T03:28:02.097Z,5.7
2023-04-25T03:29:15.209Z,5.7
2023-04-25T03:30:27.958Z,5.7
2023-04-25T03:31:41.233Z,5.7
2023-04-25T03:32:54.310Z,5.7
2023-04-25T03:34:07.081Z,5.7
2023-04-25T03:35:20.077Z,5.7
2023-04-25T03:36:33.120Z,5.7
2023-04-25T03:37:46.099Z,5.7
2023-04-25T03:38:58.757Z,5.7
2023-04-25T03:40:11.739Z,5.7
2023-04-25T03:41:24.738Z,5.7
2023-04-25T03:42:37.791Z,5.6
2023-04-25T03:43:50.934Z,5.6
2023-04-25T03:45:03.707Z,5.6
2023-04-25T03:46:16.927Z,5.6
2023-04-25T03:47:29.825Z,5.6
2023-04-25T03:48:42.801Z,5.6
2023-04-25T03:49:55.758Z,5.6
2023-04-25T03:51:08.712Z,5.6
2023-04-25T03:52:21.711Z,5.6
2023-04-25T12:42:49.759Z,8.8
2023-04-25T12:44:02.892Z,8.8
2023-04-25T12:45:15.940Z,8.8
2023-04-25T12:46:29.279Z,8.9
2023-04-25T12:47:41.937Z,8.9
2023-04-25T12:48:55.829Z,8.9
2023-04-25T12:50:07.975Z,8.9
2023-04-25T12:51:20.894Z,8.9
2023-04-25T12:52:33.908Z,9
2023-04-25T12:53:46.802Z,9.1
2023-04-25T12:54:59.984Z,9.1
2023-04-25T12:56:12.787Z,9.1
2023-04-25T12:57:25.905Z,9.2
2023-04-25T12:58:39.023Z,9.2
2023-04-25T12:59:51.903Z,9.2
2023-04-25T13:01:04.665Z,9.2
2023-04-25T13:02:18.063Z,9.2
2023-04-25T13:03:30.981Z,9.2
2023-04-25T13:04:43.919Z,9.3
2023-04-25T13:05:56.935Z,9.3
2023-04-25T13:09:36.122Z,9.3
2023-04-25T13:12:02.635Z,9.4
2023-04-25T13:13:14.965Z,9.5
2023-04-25T13:15:40.831Z,9.5
2023-04-25T13:16:53.613Z,9.5
2023-04-25T13:18:06.853Z,9.6
2023-04-25T13:21:45.639Z,9.8
2023-04-25T13:24:11.765Z,10
2023-04-25T13:25:24.748Z,10
2023-04-25T13:27:51.733Z,10.2
2023-04-25T13:29:03.927Z,10.2
2023-04-25T13:31:29.827Z,10.2
2023-04-25T13:32:42.696Z,10.2
2023-04-25T13:33:55.882Z,10.2
2023-04-25T13:35:10.584Z,10.2
2023-04-25T13:36:22.047Z,10.2
2023-04-25T13:37:35.017Z,10.4
2023-04-25T13:38:47.893Z,10.4
2023-04-25T13:40:00.612Z,10.5
2023-04-25T13:41:13.902Z,10.5
2023-04-25T13:42:26.748Z,10.7
2023-04-25T13:43:39.879Z,10.7
2023-04-25T13:44:52.921Z,10.8
2023-04-25T13:46:06.041Z,10.9
2023-04-25T13:48:31.925Z,11.1
2023-04-25T13:49:44.897Z,11.2
2023-04-25T13:50:57.996Z,11.3
2023-04-25T13:52:10.877Z,11.4
2023-04-25T13:53:23.773Z,11.5
2023-04-25T13:55:49.844Z,11.4
2023-04-25T13:57:02.907Z,11.6
2023-04-25T13:58:15.891Z,11.6
2023-04-25T13:59:28.899Z,11.6
2023-04-25T14:00:42.638Z,11.6
2023-04-25T14:01:55.008Z,11.6
2023-04-25T14:03:08.011Z,11.7
2023-04-25T14:05:33.793Z,11.7
2023-04-25T14:06:46.851Z,11.7
2023-04-25T14:08:00.382Z,11.7
2023-04-25T14:09:13.301Z,11.7
2023-04-25T14:10:25.827Z,11.7
2023-04-25T14:11:38.951Z,11.7
2023-04-25T14:12:52.000Z,11.7
2023-04-25T14:14:04.881Z,11.7
2023-04-25T14:15:17.998Z,11.6
2023-04-25T14:16:31.159Z,11.5
2023-04-25T14:17:44.077Z,11.3
2023-04-25T14:18:56.767Z,11.2
2023-04-25T14:20:09.975Z,11
2023-04-25T14:21:22.743Z,10.9
2023-04-25T14:23:49.161Z,10.7
2023-04-25T14:26:15.041Z,10.6
2023-04-25T14:27:29.214Z,10.4
2023-04-25T14:28:41.016Z,10.4
2023-04-25T14:29:53.948Z,10.2
2023-04-25T14:32:20.226Z,10.2
2023-04-25T14:33:32.746Z,10.2
2023-04-25T14:34:45.958Z,10.2
2023-04-25T14:35:59.028Z,10.2
2023-04-25T14:37:11.692Z,10.2
2023-04-25T14:38:24.927Z,10.2
2023-04-25T14:39:37.931Z,10.2
2023-04-25T14:40:51.558Z,10.2
2023-04-25T14:42:03.980Z,10.3
2023-04-25T14:43:16.671Z,10.4
2023-04-25T14:44:30.070Z,10.4
2023-04-25T14:45:42.980Z,10.4
2023-04-25T14:46:55.992Z,10.4
2023-04-25T14:48:08.877Z,10.4
2023-04-25T14:49:21.913Z,10.4
2023-04-25T14:50:34.956Z,10.4
2023-04-25T14:51:48.778Z,10.6
2023-04-25T14:53:00.766Z,10.6
2023-04-25T14:54:14.096Z,10.5
2023-04-25T14:55:26.980Z,10.6
2023-04-25T14:56:39.586Z,10.7
2023-04-25T14:57:52.948Z,10.7
2023-04-25T14:59:06.086Z,10.8
2023-04-25T15:00:19.029Z,10.8
2023-04-25T15:01:32.902Z,10.8
2023-04-25T15:02:45.067Z,10.8
2023-04-25T15:05:11.354Z,11
2023-04-25T15:06:23.603Z,10.9
2023-04-25T15:07:36.800Z,10.9
2023-04-25T15:08:49.929Z,10.9
2023-04-25T15:10:03.486Z,10.9
2023-04-25T15:12:28.764Z,10.9
2023-04-25T15:13:41.840Z,11.1
2023-04-25T15:14:54.958Z,11.1
2023-04-25T15:16:07.832Z,11.1
2023-04-25T15:18:34.124Z,11.1
2023-04-25T15:19:46.932Z,11.1
2023-04-25T15:20:59.940Z,11.1
2023-04-25T15:22:12.913Z,11.1
2023-04-25T15:23:26.743Z,11.1
2023-04-25T15:24:38.947Z,11.1
2023-04-25T15:25:51.815Z,11.1
2023-04-25T15:27:04.992Z,11.1
2023-04-25T15:28:18.073Z,11.1
2023-04-25T15:29:30.997Z,11.1
2023-04-25T15:30:43.806Z,11.1
2023-04-25T15:31:56.992Z,11.1
2023-04-25T15:33:09.943Z,11.1
2023-04-25T15:34:22.752Z,11.1
2023-04-25T15:35:35.691Z,11.1
2023-04-25T15:36:49.014Z,11.1
2023-04-25T15:38:02.002Z,11.1
2023-04-25T15:39:14.930Z,10.9
2023-04-25T15:41:40.772Z,10.9
2023-04-25T15:42:54.651Z,10.8
2023-04-25T15:44:07.184Z,10.8
2023-04-25T15:45:19.979Z,10.7
2023-04-25T15:46:33.048Z,10.7
2023-04-25T15:47:46.027Z,10.7
2023-04-25T15:48:58.927Z,10.7
2023-04-25T15:50:11.852Z,10.7
2023-04-25T15:51:25.651Z,10.7
2023-04-25T15:52:37.958Z,10.7
2023-04-25T15:53:51.037Z,10.7
2023-04-25T15:55:03.759Z,10.7
2023-04-25T15:56:16.908Z,10.7
2023-04-25T15:57:29.928Z,10.7
2023-04-25T15:59:55.922Z,10.7
2023-04-25T16:01:08.889Z,10.7
2023-04-25T16:02:21.654Z,10.7
2023-04-25T16:03:36.425Z,10.7
2023-04-25T16:04:47.794Z,10.8
2023-04-25T16:06:00.916Z,10.8
2023-04-25T16:07:14.086Z,10.8
2023-04-25T16:08:26.935Z,10.8
2023-04-25T16:09:39.959Z,10.8
2023-04-25T16:10:52.953Z,10.7
2023-04-25T16:12:06.475Z,10.7
2023-04-25T16:13:18.940Z,10.7
2023-04-25T16:14:31.912Z,10.7
2023-04-25T16:15:44.885Z,10.5
2023-04-25T16:18:11.028Z,10.5
2023-04-25T16:19:23.936Z,10.4
2023-04-25T16:20:37.030Z,10.4
2023-04-25T16:21:49.816Z,10.2
2023-04-25T16:23:02.938Z,10.2
2023-04-25T16:24:15.871Z,10.3
2023-04-25T16:25:29.060Z,10.2
2023-04-25T16:26:41.943Z,10.2
2023-04-25T16:29:08.891Z,10.2
2023-04-25T16:30:20.952Z,10
2023-04-25T16:31:34.070Z,10
2023-04-25T16:32:47.098Z,10
2023-04-25T16:33:59.807Z,10
2023-04-25T16:35:12.798Z,9.9
2023-04-25T16:36:25.735Z,9.9
2023-04-25T16:38:52.057Z,9.9
2023-04-25T16:41:18.660Z,9.7
2023-04-25T16:42:31.082Z,9.7
2023-04-25T16:43:44.076Z,9.7
2023-04-25T16:44:56.879Z,9.7
2023-04-25T16:46:10.011Z,9.7
2023-04-25T16:47:22.626Z,9.7
2023-04-25T16:49:48.902Z,9.6
2023-04-25T16:51:01.979Z,9.6
2023-04-25T16:52:14.803Z,9.6
2023-04-25T16:53:28.073Z,9.6
2023-04-25T16:54:40.732Z,9.6
2023-04-25T16:55:54.754Z,9.6
2023-04-25T16:57:07.013Z,9.6
2023-04-25T16:59:32.928Z,9.6
2023-04-25T17:00:46.000Z,9.7
2023-04-25T17:01:58.999Z,9.6
2023-04-25T17:03:12.124Z,9.7
2023-04-25T17:04:24.894Z,9.7
2023-04-25T17:05:37.849Z,9.7
2023-04-25T17:06:50.854Z,9.6
2023-04-25T17:09:16.902Z,9.5
2023-04-25T17:10:29.950Z,9.5
2023-04-25T17:11:42.952Z,9.5
2023-04-25T17:12:56.007Z,9.5
2023-04-25T17:15:21.807Z,9.5
2023-04-25T17:16:35.058Z,9.5
2023-04-25T17:17:47.903Z,9.5
2023-04-25T17:20:14.049Z,9.5
2023-04-25T17:21:26.997Z,9.5
2023-04-25T17:22:39.733Z,9.5
2023-04-25T17:23:52.988Z,9.5
2023-04-25T17:25:05.871Z,9.5
2023-04-25T17:26:18.985Z,9.5
2023-04-25T17:27:31.665Z,9.5
2023-04-25T17:31:11.022Z,9.3
2023-04-25T17:33:37.060Z,9.3
2023-04-25T17:34:50.071Z,9.3
2023-04-25T17:36:02.873Z,9.3
2023-04-25T17:37:15.986Z,9.2
2023-04-25T17:38:28.947Z,9.2
2023-04-25T17:39:41.909Z,9.2
2023-04-25T17:40:54.931Z,9.2
2023-04-25T17:43:21.333Z,9.2
2023-04-25T17:44:34.001Z,9.2
2023-04-25T17:45:46.984Z,9.2
2023-04-25T17:48:12.816Z,9.2
2023-04-25T17:50:38.889Z,9.2
2023-04-25T17:53:04.712Z,9.2
2023-04-25T17:56:43.806Z,9.2
2023-04-25T17:57:56.825Z,9.2
2023-04-25T18:00:23.375Z,9.1
2023-04-25T18:02:48.868Z,9.1
2023-04-25T18:07:40.872Z,8.9
2023-04-25T18:10:06.746Z,8.9
2023-04-25T18:11:19.965Z,8.9
2023-04-25T18:12:32.768Z,8.9
2023-04-25T18:17:24.961Z,8.9
2023-04-25T18:19:51.023Z,8.9
2023-04-25T18:23:29.756Z,9
2023-04-25T18:33:14.758Z,8.9
2023-04-25T18:40:32.173Z,8.8
2023-04-25T18:46:37.067Z,8.5
2023-04-25T18:50:16.458Z,8.4
2023-04-25T19:01:12.936Z,8.1
2023-04-25T19:02:26.079Z,8.1
2023-04-25T19:03:39.226Z,8.1
2023-04-25T19:04:52.008Z,8.1
2023-04-25T19:06:05.022Z,8.1
2023-04-25T19:07:17.962Z,8.1
2023-04-25T19:08:30.859Z,7.9
2023-04-25T19:09:44.053Z,8.1
2023-04-25T19:10:57.633Z,7.9
2023-04-25T19:12:10.026Z,8.1
2023-04-25T19:13:22.987Z,8.1
2023-04-25T19:14:36.207Z,8.1
2023-04-25T19:15:49.000Z,8.1
2023-04-25T19:17:02.151Z,8.1
2023-04-25T19:18:15.044Z,8.2
2023-04-25T19:19:27.975Z,8.2
2023-04-25T19:20:41.012Z,8.2
2023-04-25T19:21:54.181Z,8.2
2023-04-25T19:23:06.991Z,8.2
2023-04-25T19:24:20.045Z,8.2
2023-04-25T19:25:32.871Z,8.1
2023-04-25T19:26:46.790Z,8.1
2023-04-25T19:27:59.014Z,8.1
2023-04-25T19:29:12.488Z,8.1
2023-04-25T19:31:38.721Z,7.9
2023-04-25T19:32:51.033Z,7.9
2023-04-25T19:34:04.179Z,7.9
2023-04-25T19:35:16.973Z,7.9
2023-04-25T19:41:22.092Z,7.6
2023-04-25T19:47:26.822Z,7.4
2023-04-25T19:49:52.832Z,7.2
2023-04-25T19:51:05.622Z,7.2
2023-04-25T19:52:18.539Z,7.2
2023-04-25T19:55:57.553Z,7.2
2023-04-25T20:08:07.717Z,6.6
2023-04-25T20:09:21.289Z,6.6
2023-04-25T20:10:34.451Z,6.5
2023-04-25T20:11:46.835Z,6.4
2023-04-25T20:25:09.589Z,5.8
2023-04-25T20:26:23.169Z,5.8
2023-04-25T20:44:38.161Z,5
2023-04-25T21:15:02.694Z,3.9
2023-04-25T21:18:41.603Z,3.8
2023-04-25T21:21:07.924Z,3.8
2023-04-25T21:25:59.804Z,3.7
2023-04-25T21:27:12.668Z,3.7
2023-04-25T21:38:09.615Z,3.4
2023-04-25T21:40:35.620Z,3.4
2023-04-25T21:43:02.334Z,3.4
2023-04-25T21:45:28.006Z,3.3
2023-04-25T21:49:06.799Z,3.3
2023-04-25T21:56:24.769Z,3.3
2023-04-25T22:00:03.711Z,3.3
2023-04-25T22:18:19.374Z,2.9
2023-04-25T22:20:44.632Z,2.9
2023-04-25T22:39:00.259Z,2.3
2023-04-25T22:42:39.041Z,2.2
2023-04-25T22:45:05.571Z,2.1
2023-04-25T23:04:32.829Z,1.6
2023-04-25T23:11:50.810Z,1.5
2023-04-25T23:13:03.853Z,1.5
2023-04-25T23:39:50.164Z,1.1
2023-04-25T23:42:15.640Z,0.9
2023-04-25T23:50:47.277Z,0.9
